Stations météo

réclame
Mon MeteoGroup
Inverness/Dalcross, Grande-Bretagne (3059): Température de l'air & dewpoint: 18.10.2018 06:00:00 - 24.10.2018 06:00:00 (BST)Inverness/Dalcross, Grande-Bretagne (3059): Vitesse du vent: 18.10.2018 06:00:00 - 24.10.2018 06:00:00 (BST)Inverness/Dalcross, Grande-Bretagne (3059): Direction du vent: 18.10.2018 06:00:00 - 24.10.2018 06:00:00 (BST)Inverness/Dalcross, Grande-Bretagne (3059): visibility: 18.10.2018 06:00:00 - 24.10.2018 06:00:00 (BST)
Date & Time tt [°C] td [°C] ff [km/h] ff [knt] dd vv [km]
24.10.2018 06:00:00 12,0 10,0 26 14 SW 10
24.10.2018 05:00:00 13,0 9,0 35 19 WSW 10
24.10.2018 04:00:00 13,0 9,0 34 18 WSW 10
24.10.2018 03:00:00 13,0 10,0 39 21 W 10
24.10.2018 02:00:00 13,0 10,0 35 19 WSW 10
24.10.2018 01:00:00 13,0 10,0 41 22 WSW 10
24.10.2018 00:00:00 13,0 10,0 42 23 SW 10
23.10.2018 23:00:00 13,0 10,0 31 17 WSW 10
23.10.2018 22:00:00 13,0 10,0 37 20 WSW 10
23.10.2018 21:00:00 13,0 11,0 39 21 W 10
23.10.2018 20:00:00 14,0 11,0 42 23 W 10
23.10.2018 19:00:00 14,0 11,0 37 20 W 10
23.10.2018 18:00:00 14,0 10,0 39 21 W 10
23.10.2018 17:00:00 14,0 10,0 42 23 WSW 10
23.10.2018 16:00:00 14,0 10,0 48 26 WSW 10
23.10.2018 15:00:00 14,0 10,0 34 18 WSW 10
23.10.2018 14:00:00 14,0 10,0 37 20 W 10
23.10.2018 13:00:00 14,0 10,0 42 23 WSW 10
23.10.2018 12:00:00 13,0 10,0 50 27 W 10
23.10.2018 11:00:00 13,0 10,0 52 28 W 10
23.10.2018 10:00:00 13,0 10,0 44 24 W 10
23.10.2018 09:00:00 12,0 9,0 46 25 W 10
23.10.2018 08:00:00 12,0 9,0 50 27 W 10
23.10.2018 07:00:00 12,0 9,0 48 26 W 10
23.10.2018 06:00:00 11,0 9,0 37 20 W 10
23.10.2018 05:00:00 11,0 9,0 37 20 WSW 10
23.10.2018 04:00:00 11,0 9,0 48 26 WSW 10
23.10.2018 03:00:00 12,0 9,0 55 30 WSW 10
23.10.2018 02:00:00 12,0 9,0 52 28 WSW 10
23.10.2018 01:00:00 12,0 9,0 48 26 WSW 8
23.10.2018 00:00:00 12,0 9,0 50 27 WSW 10
22.10.2018 23:00:00 11,0 9,0 57 31 WSW 7
22.10.2018 22:00:00 12,0 8,0 59 32 WSW 10
22.10.2018 21:00:00 12,0 8,0 59 32 WSW 10
22.10.2018 20:00:00 12,0 7,0 57 31 WSW 10
22.10.2018 19:00:00 12,0 6,0 59 32 WSW 10
22.10.2018 18:00:00 12,0 6,0 55 30 WSW 10
22.10.2018 17:00:00 12,0 5,0 55 30 WSW 10
22.10.2018 16:00:00 12,0 5,0 54 29 WSW 10
22.10.2018 15:00:00 13,0 7,0 46 25 WSW 10
22.10.2018 14:00:00 12,0 7,0 57 31 WSW 10
22.10.2018 13:00:00 11,0 6,0 37 20 WSW 10
22.10.2018 12:00:00 11,0 7,0 35 19 SW 10
22.10.2018 11:00:00 10,0 6,0 39 21 SW 10
22.10.2018 10:00:00 9,0 5,0 35 19 WSW 10
22.10.2018 09:00:00 8,0 4,0 29 16 WSW 10
22.10.2018 08:00:00 7,0 4,0 24 13 WSW 10
22.10.2018 07:00:00 7,0 4,0 21 11 SW 10
22.10.2018 06:00:00 7,0 4,0 29 16 WSW 10
22.10.2018 05:00:00 7,0 4,0 28 15 WSW 10
22.10.2018 04:00:00 7,0 5,0 22 12 W 10
22.10.2018 03:00:00 7,0 3,0 24 13 WSW 10
22.10.2018 02:00:00 8,0 3,0 28 15 WSW 10
22.10.2018 01:00:00 6,0 2,0 22 12 WSW 10
22.10.2018 00:00:00 7,0 3,0 37 20 WSW 10
21.10.2018 23:00:00 6,0 2,0 26 14 WSW 10
21.10.2018 22:00:00 7,0 1,0 31 17 WSW 10
21.10.2018 21:00:00 8,0 2,0 35 19 WSW 10
21.10.2018 20:00:00 8,0 2,0 37 20 W 10
21.10.2018 19:00:00 8,0 4,0 29 16 WSW 10
21.10.2018 18:00:00 9,0 3,0 42 23 WSW 10
21.10.2018 17:00:00 10,0 4,0 29 16 WSW 10
21.10.2018 16:00:00 10,0 5,0 34 18 W 10
21.10.2018 15:00:00 10,0 7,0 41 22 W 10
21.10.2018 14:00:00 11,0 8,0 34 18 W 10
21.10.2018 13:00:00 10,0 9,0 26 14 SW 9
21.10.2018 12:00:00 10,0 8,0 31 17 SW 10
21.10.2018 11:00:00 10,0 9,0 28 15 SW 10
21.10.2018 10:00:00 10,0 8,0 16 9 WSW 10
21.10.2018 09:00:00 10,0 9,0 24 13 SW 7
21.10.2018 08:00:00 10,0 9,0 16 9 SW 8
21.10.2018 07:00:00 11,0 10,0 13 7 SW 6
21.10.2018 06:00:00 12,0 11,0 18 10 W 5
21.10.2018 05:00:00 14,0 13,0 13 7 WSW 3,6
21.10.2018 04:00:00 14,0 13,0 31 17 WSW 10
21.10.2018 03:00:00 15,0 13,0 29 16 SW 10
21.10.2018 02:00:00 15,0 13,0 29 16 SW 10
21.10.2018 01:00:00 15,0 13,0 28 15 SW 10
21.10.2018 00:00:00 15,0 13,0 22 12 SW 10
20.10.2018 23:00:00 15,0 13,0 15 8 SW 10
20.10.2018 22:00:00 15,0 13,0 24 13 SW 10
20.10.2018 21:00:00 14,0 13,0 18 10 WSW 10
20.10.2018 20:00:00 14,0 13,0 13 7 SW 10
20.10.2018 19:00:00 15,0 12,0 24 13 SW 10
20.10.2018 18:00:00 15,0 12,0 26 14 SW 10
20.10.2018 17:00:00 16,0 12,0 29 16 SSW 10
20.10.2018 16:00:00 16,0 12,0 34 18 SW 10
20.10.2018 15:00:00 16,0 12,0 41 22 SW 10
20.10.2018 14:00:00 17,0 12,0 39 21 SW 10
20.10.2018 13:00:00 16,0 12,0 29 16 SW 10
20.10.2018 12:00:00 16,0 12,0 35 19 SW 10
20.10.2018 11:00:00 15,0 11,0 41 22 SW 10
20.10.2018 10:00:00 14,0 11,0 37 20 SW 10
20.10.2018 09:00:00 13,0 11,0 29 16 WSW 10
20.10.2018 08:00:00 12,0 10,0 34 18 WSW 10
20.10.2018 07:00:00 11,0 9,0 9 5 - 10
20.10.2018 06:00:00 9,0 7,0 2 1 - 10
20.10.2018 05:00:00 7,0 6,0 5 3 SW 10
20.10.2018 04:00:00 4,0 3,0 4 2 NNE 10
20.10.2018 03:00:00 5,0 3,0 5 3 SSW 10
20.10.2018 02:00:00 - - - - - -
20.10.2018 01:00:00 - - - - - -
20.10.2018 00:00:00 - - - - - -
19.10.2018 23:00:00 7,0 4,0 13 7 WSW 10
19.10.2018 22:00:00 - - - - - -
19.10.2018 21:00:00 7,0 5,0 5 3 SSW 10
19.10.2018 20:00:00 8,0 4,0 2 1 - 10
19.10.2018 19:00:00 9,0 5,0 15 8 W 10
19.10.2018 18:00:00 10,0 5,0 15 8 W 10
19.10.2018 17:00:00 11,0 6,0 22 12 WSW 10
19.10.2018 16:00:00 12,0 7,0 24 13 SW 10
19.10.2018 15:00:00 13,0 7,0 21 11 WSW 10
19.10.2018 14:00:00 12,0 7,0 35 19 W 10
19.10.2018 13:00:00 11,0 9,0 39 21 SW 10
19.10.2018 12:00:00 11,0 8,0 37 20 SW 10
19.10.2018 11:00:00 10,0 8,0 29 16 SSW 10
19.10.2018 10:00:00 9,0 7,0 35 19 SW 10
19.10.2018 09:00:00 10,0 5,0 31 17 SW 10
19.10.2018 08:00:00 10,0 4,0 35 19 SW 10
19.10.2018 07:00:00 9,0 4,0 11 6 SSW 10
19.10.2018 06:00:00 10,0 4,0 22 12 SW 10
19.10.2018 05:00:00 8,0 4,0 8 4 SW 10
19.10.2018 04:00:00 9,0 4,0 22 12 SW 10
19.10.2018 03:00:00 7,0 4,0 9 5 SW 10
19.10.2018 02:00:00 8,0 4,0 8 4 SSW 10
19.10.2018 01:00:00 7,0 4,0 0 0 N 10
19.10.2018 00:00:00 8,0 4,0 8 4 S -
18.10.2018 23:00:00 7,0 4,0 11 6 SSW 10
18.10.2018 22:00:00 8,0 5,0 8 4 S 10
18.10.2018 21:00:00 8,0 5,0 9 5 S 10
18.10.2018 20:00:00 9,0 5,0 9 5 SSW 10
18.10.2018 19:00:00 9,0 6,0 8 4 S 10
18.10.2018 18:00:00 10,0 6,0 24 13 SW 10
18.10.2018 17:00:00 11,0 5,0 15 8 SSW 10
18.10.2018 16:00:00 11,0 5,0 22 12 SW 10
18.10.2018 15:00:00 11,0 5,0 21 11 SSW 10
18.10.2018 14:00:00 11,0 5,0 21 11 SW 10
18.10.2018 13:00:00 11,0 6,0 18 10 SW 10
18.10.2018 12:00:00 11,0 6,0 21 11 SW 10
18.10.2018 11:00:00 10,0 6,0 18 10 SW 10
18.10.2018 10:00:00 9,0 6,0 16 9 SW 10
18.10.2018 09:00:00 7,0 5,0 4 2 - 10
18.10.2018 08:00:00 5,0 4,0 2 1 - 10
18.10.2018 07:00:00 2,0 1,0 15 8 WSW 10
18.10.2018 06:00:00 4,0 2,0 8 4 SW 10

tt = Température de l'air
td = dewpoint
ff = Vitesse du vent
dd = Direction du vent
vv = visibility

stations d'obs. à proximité